Time;durP1;ratioP1;P1;durP2;ratioP2;P2;SDS_P1;SDS_P2;PMS_P1;PMS_P2;Temp;Humidity;BMP_temperature;BMP_pressure;BME280_temperature;BME280_humidity;BME280_pressure;Samples;Min_cycle;Max_cycle;Signal;HPM_P1;HPM_P2
2022/02/04 00:06:13;;;;;;;59.50;52.90;;;;;;;-3.21;100.00;101732.00;5045578;28;20055;-81
2022/02/04 00:25:16;;;;;;;71.85;61.17;;;;;;;-3.35;100.00;101740.63;5044677;28;20496;-80
2022/02/04 00:27:43;;;;;;;64.72;57.80;;;;;;;-3.79;100.00;101744.06;5043494;28;20139;-79
2022/02/04 00:30:16;;;;;;;67.72;61.05;;;;;;;-3.69;100.00;101744.38;5038410;28;20045;-82
2022/02/04 00:32:45;;;;;;;67.38;56.75;;;;;;;-3.30;100.00;101751.59;5039432;28;20051;-80
2022/02/04 00:35:21;;;;;;;62.78;56.35;;;;;;;-3.40;100.00;101753.06;5041550;28;20046;-82
2022/02/04 00:37:58;;;;;;;67.00;59.65;;;;;;;-3.25;100.00;101754.75;5041498;28;20053;-80
2022/02/04 00:40:27;;;;;;;73.63;65.65;;;;;;;-3.22;100.00;101751.97;5038989;28;20080;-80
2022/02/04 00:42:59;;;;;;;65.85;59.10;;;;;;;-3.31;100.00;101755.09;5043210;28;20049;-81
2022/02/04 00:45:32;;;;;;;72.07;64.72;;;;;;;-3.35;100.00;101758.81;5040535;28;20037;-81
2022/02/04 00:48:09;;;;;;;70.90;64.07;;;;;;;-3.13;100.00;101760.16;5046596;28;20053;-82
2022/02/04 00:50:50;;;;;;;66.60;59.78;;;;;;;-3.25;100.00;101752.16;5045007;28;20448;-81
2022/02/04 00:53:27;;;;;;;73.22;65.97;;;;;;;-3.49;100.00;101751.81;5039098;28;20042;-82
2022/02/04 00:56:07;;;;;;;74.30;66.22;;;;;;;-4.01;100.00;101754.81;5040385;28;20049;-82
2022/02/04 01:26:06;;;;;;;83.85;68.05;;;;;;;-4.59;100.00;101752.84;5043992;28;20106;-82
2022/02/04 01:28:34;;;;;;;168.10;109.18;;;;;;;-4.38;100.00;101748.25;5036711;28;20041;-83
2022/02/04 01:31:02;;;;;;;141.02;91.72;;;;;;;-4.45;100.00;101759.88;5038723;28;20136;-79
2022/02/04 01:33:29;;;;;;;108.05;79.55;;;;;;;-4.45;100.00;101752.94;5037820;28;20413;-79
2022/02/04 01:35:56;;;;;;;115.82;88.32;;;;;;;-4.44;100.00;101756.38;5037519;28;20081;-79
2022/02/04 01:38:23;;;;;;;113.22;83.05;;;;;;;-4.28;100.00;101752.00;5037496;28;20045;-81
2022/02/04 01:40:50;;;;;;;104.78;73.95;;;;;;;-4.40;100.00;101753.50;5038919;28;20057;-81
2022/02/04 01:43:21;;;;;;;124.65;84.03;;;;;;;-4.46;100.00;101753.00;5047139;28;20453;-80
2022/02/04 01:45:49;;;;;;;125.35;83.80;;;;;;;-4.77;100.00;101753.84;5044895;28;20052;-81
2022/02/04 01:48:16;;;;;;;88.38;75.80;;;;;;;-5.26;100.00;101756.38;5041809;28;20045;-82
2022/02/04 01:50:45;;;;;;;95.43;76.13;;;;;;;-5.16;100.00;101755.00;5044388;28;20041;-82
2022/02/04 01:53:12;;;;;;;88.18;67.90;;;;;;;-5.28;100.00;101764.22;5041400;28;20102;-81
2022/02/04 01:55:38;;;;;;;87.97;69.57;;;;;;;-5.16;100.00;101766.19;5041367;28;20049;-81
2022/02/04 01:58:05;;;;;;;102.00;72.68;;;;;;;-4.88;100.00;101756.97;5041129;28;20056;-81
2022/02/04 02:00:33;;;;;;;107.65;90.85;;;;;;;-4.96;100.00;101766.91;5044609;28;20049;-82
2022/02/04 02:03:00;;;;;;;105.25;84.35;;;;;;;-4.92;100.00;101761.50;5043441;28;20110;-81
2022/02/04 02:05:27;;;;;;;97.45;78.43;;;;;;;-5.10;100.00;101772.81;5042994;28;20049;-84
2022/02/04 02:07:54;;;;;;;82.47;68.90;;;;;;;-5.58;100.00;101770.03;5042254;28;20045;-82
2022/02/04 02:10:20;;;;;;;88.93;67.55;;;;;;;-5.37;100.00;101775.88;5038870;28;20052;-81
2022/02/04 02:12:58;;;;;;;88.00;68.18;;;;;;;-5.14;100.00;101772.13;5038711;28;20050;-81
2022/02/04 02:15:31;;;;;;;90.97;69.88;;;;;;;-5.42;100.00;101769.25;5036608;28;20045;-80
2022/02/04 02:46:00;;;;;;;78.50;66.85;;;;;;;-6.41;100.00;101790.44;5047933;28;20122;-81
2022/02/04 02:48:43;;;;;;;75.63;63.78;;;;;;;-5.81;100.00;101781.53;5044196;28;20075;-81
2022/02/04 02:54:35;;;;;;;75.95;65.13;;;;;;;-5.87;100.00;101774.06;5002262;28;20045;-81
2022/02/04 02:59:53;;;;;;;74.65;64.35;;;;;;;-5.86;100.00;101787.81;5046042;28;20048;-81
2022/02/04 03:02:20;;;;;;;77.28;68.85;;;;;;;-6.03;100.00;101773.97;5109521;22;20493;-80
2022/02/04 03:04:47;;;;;;;80.50;70.60;;;;;;;-5.94;100.00;101783.03;4995148;28;20132;-82
2022/02/04 03:07:14;;;;;;;81.25;71.00;;;;;;;-6.10;100.00;101780.34;4994025;28;20526;-82
2022/02/04 03:09:41;;;;;;;79.68;68.22;;;;;;;-6.53;100.00;101779.75;4996288;28;20108;-79
2022/02/04 03:12:10;;;;;;;93.32;77.40;;;;;;;-6.15;100.00;101784.06;4992977;28;20063;-80
2022/02/04 03:14:37;;;;;;;79.88;71.18;;;;;;;-6.43;100.00;101781.91;4995302;28;20046;-80
2022/02/04 03:17:06;;;;;;;77.35;68.97;;;;;;;-6.31;100.00;101782.19;4997967;28;20466;-79
2022/02/04 03:19:33;;;;;;;80.78;69.68;;;;;;;-6.16;100.00;101784.97;4996308;28;20387;-80
2022/02/04 03:22:05;;;;;;;85.63;76.35;;;;;;;-6.63;100.00;101788.81;4993480;28;20129;-79
2022/02/04 03:24:33;;;;;;;;;;;;;;;-6.46;100.00;101781.16;4997440;28;20050;-80
2022/02/04 03:27:05;;;;;;;82.60;73.10;;;;;;;-6.46;100.00;101770.81;4995610;28;20269;-80
2022/02/04 03:29:43;;;;;;;81.72;65.60;;;;;;;-6.62;100.00;101781.94;4994027;28;20478;-79
2022/02/04 03:32:11;;;;;;;81.88;70.88;;;;;;;-6.46;100.00;101775.13;4998534;28;20043;-80
2022/02/04 03:34:38;;;;;;;80.28;70.03;;;;;;;-6.16;100.00;101772.03;4992795;28;20478;-79
2022/02/04 03:37:05;;;;;;;77.82;69.75;;;;;;;-6.35;100.00;101765.16;4995507;28;20050;-79
2022/02/04 03:39:33;;;;;;;72.35;65.05;;;;;;;-6.47;100.00;101776.91;4996928;28;20057;-80
2022/02/04 03:41:59;;;;;;;78.82;65.45;;;;;;;-6.37;100.00;101769.53;4991866;28;20105;-80
2022/02/04 03:44:26;;;;;;;79.75;65.45;;;;;;;-6.33;100.00;101768.47;4993465;28;20045;-80
2022/02/04 03:46:55;;;;;;;108.95;77.03;;;;;;;-6.29;100.00;101774.38;4997188;28;20537;-80
2022/02/04 03:49:21;;;;;;;82.80;68.15;;;;;;;-6.59;100.00;101774.88;4994062;28;20050;-80
2022/02/04 03:51:48;;;;;;;79.75;68.32;;;;;;;-6.49;100.00;101772.69;4994626;28;20061;-79
2022/02/04 03:54:15;;;;;;;82.90;70.40;;;;;;;-6.52;100.00;101773.66;4994125;28;20149;-80
2022/02/04 03:56:42;;;;;;;92.63;76.10;;;;;;;-6.20;100.00;101765.31;4993606;28;20480;-80
2022/02/04 03:59:08;;;;;;;105.88;86.20;;;;;;;-6.08;100.00;101764.75;4996298;28;20588;-83
2022/02/04 04:01:35;;;;;;;82.93;64.75;;;;;;;-6.78;100.00;101774.00;4993610;28;20116;-81
2022/02/04 04:04:04;;;;;;;80.78;69.00;;;;;;;-6.22;100.00;101783.50;4995815;28;20050;-81
2022/02/04 04:06:31;;;;;;;72.82;64.80;;;;;;;-5.98;100.00;101771.16;4997874;28;20073;-82
2022/02/04 04:08:58;;;;;;;83.75;70.35;;;;;;;-5.72;100.00;101766.44;4996507;28;20050;-80
2022/02/04 04:11:25;;;;;;;68.43;59.35;;;;;;;-5.74;100.00;101768.28;4998437;28;20046;-81
2022/02/04 04:13:51;;;;;;;68.97;61.20;;;;;;;-5.62;100.00;101767.69;4999111;28;20057;-80
2022/02/04 04:16:20;;;;;;;69.18;60.35;;;;;;;-5.54;100.00;101771.56;4994276;28;20038;-80
2022/02/04 04:18:47;;;;;;;73.72;64.07;;;;;;;-5.55;100.00;101769.03;4998535;28;20553;-80
2022/02/04 04:21:15;;;;;;;67.10;60.03;;;;;;;-6.04;100.00;101763.69;4997492;28;20120;-80
2022/02/04 04:23:42;;;;;;;66.97;59.47;;;;;;;-6.05;100.00;101767.19;4991948;28;20109;-80
2022/02/04 04:26:08;;;;;;;69.68;59.58;;;;;;;-6.16;100.00;101764.28;4995080;28;20471;-80
2022/02/04 04:28:35;;;;;;;65.78;58.65;;;;;;;-6.52;100.00;101773.66;4996445;28;20046;-80
2022/02/04 04:31:02;;;;;;;73.13;62.92;;;;;;;-6.39;100.00;101773.09;4993690;28;20069;-79
2022/02/04 04:33:29;;;;;;;99.22;75.88;;;;;;;-6.51;100.00;101772.75;4996973;28;20047;-80
2022/02/04 04:35:55;;;;;;;92.40;73.75;;;;;;;-6.36;100.00;101766.03;4997251;28;20051;-78
2022/02/04 04:38:31;;;;;;;109.53;86.85;;;;;;;-6.58;100.00;101766.19;4998311;28;20046;-80
2022/02/04 04:41:12;;;;;;;97.75;78.47;;;;;;;-6.61;100.00;101768.91;4993605;28;20046;-80
2022/02/04 04:44:05;;;;;;;117.53;94.50;;;;;;;-6.66;100.00;101767.44;4993266;28;20134;-80
2022/02/04 05:28:00;;;;;;;69.45;61.58;;;;;;;-5.78;100.00;101790.88;4951758;28;20067;-79
2022/02/04 05:30:27;;;;;;;72.85;64.03;;;;;;;-5.73;100.00;101794.06;4950506;28;20180;-80
2022/02/04 05:32:53;;;;;;;76.65;66.65;;;;;;;-5.93;100.00;101792.50;4954610;28;20047;-80
2022/02/04 05:35:20;;;;;;;98.30;78.07;;;;;;;-6.07;100.00;101784.53;4951901;28;20082;-79
2022/02/04 05:37:50;;;;;;;106.07;82.63;;;;;;;-6.01;100.00;101779.91;4950178;28;20055;-80
2022/02/04 05:40:21;;;;;;;123.22;86.05;;;;;;;-5.92;100.00;101782.94;4955687;28;20491;-77
2022/02/04 05:42:55;;;;;;;106.47;81.63;;;;;;;-6.12;100.00;101791.66;4957809;28;20098;-78
2022/02/04 05:45:25;;;;;;;97.80;73.43;;;;;;;-5.71;100.00;101783.66;4953074;28;20060;-78
2022/02/04 05:47:57;;;;;;;83.35;68.07;;;;;;;-5.45;100.00;101790.97;4953426;28;20190;-81
2022/02/04 05:50:33;;;;;;;80.70;70.20;;;;;;;2.20;100.00;101807.88;4962314;28;20057;-81
2022/02/04 05:53:14;;;;;;;72.60;63.17;;;;;;;4.58;100.00;101809.25;4960248;28;20051;-82
2022/02/04 05:55:55;;;;;;;104.88;87.72;;;;;;;5.20;100.00;101792.03;4962262;28;20122;-80
2022/02/04 06:01:27;;;;;;;112.00;81.18;;;;;;;-4.17;100.00;101786.00;4944285;28;20061;-78
2022/02/04 06:04:07;;;;;;;131.60;102.82;;;;;;;-4.35;100.00;101792.19;4950192;28;20050;-82
2022/02/04 06:06:57;;;;;;;121.45;86.90;;;;;;;-4.43;100.00;101802.97;4952408;28;20047;-78
2022/02/04 06:09:53;;;;;;;117.28;92.05;;;;;;;-4.15;100.00;101796.25;4970451;28;20134;-82
2022/02/04 06:15:14;;;;;;;144.23;107.15;;;;;;;-4.19;100.00;101797.38;4934148;28;20127;-78
2022/02/04 06:23:09;;;;;;;100.07;78.30;;;;;;;-4.02;100.00;101807.66;4943382;29;20382;-80
2022/02/04 06:25:36;;;;;;;81.78;70.80;;;;;;;-4.03;100.00;101815.53;4949579;28;20059;-80
2022/02/04 06:28:03;;;;;;;79.97;69.35;;;;;;;-3.89;100.00;101819.97;4943095;29;20062;-80
2022/02/04 06:30:31;;;;;;;89.10;75.35;;;;;;;-3.63;100.00;101827.13;4948988;29;20121;-79
2022/02/04 06:32:58;;;;;;;93.60;74.97;;;;;;;-3.43;100.00;101823.38;4945040;28;20055;-79
2022/02/04 06:35:25;;;;;;;81.50;72.78;;;;;;;-3.29;100.00;101820.81;4948684;29;20448;-78
2022/02/04 06:37:52;;;;;;;79.05;70.65;;;;;;;-3.06;100.00;101816.03;4946446;29;20047;-82
2022/02/04 06:40:18;;;;;;;79.75;71.38;;;;;;;-2.59;100.00;101820.97;4939624;29;20451;-82
2022/02/04 06:42:45;;;;;;;71.05;64.22;;;;;;;-2.43;100.00;101820.03;4943678;28;20114;-81
2022/02/04 06:45:12;;;;;;;82.25;73.63;;;;;;;-2.25;100.00;101823.28;4946202;29;20137;-80
2022/02/04 06:47:41;;;;;;;81.82;73.93;;;;;;;-2.58;100.00;101825.25;4946191;28;20059;-78
2022/02/04 06:50:08;;;;;;;77.55;69.40;;;;;;;-1.91;100.00;101816.75;4946948;29;20082;-78
2022/02/04 06:52:35;;;;;;;77.82;69.45;;;;;;;-1.75;100.00;101819.25;4942924;29;20123;-83
2022/02/04 06:55:01;;;;;;;83.25;74.90;;;;;;;-1.69;100.00;101818.84;4952618;28;20369;-81
2022/02/04 06:57:28;;;;;;;77.88;69.55;;;;;;;-1.67;100.00;101815.19;4944915;29;20055;-78
2022/02/04 06:59:55;;;;;;;76.25;68.45;;;;;;;-2.17;100.00;101821.88;4944729;29;20122;-79
2022/02/04 07:02:26;;;;;;;70.97;63.72;;;;;;;-2.92;100.00;101813.44;4946677;29;20158;-78
2022/02/04 07:04:54;;;;;;;80.85;72.85;;;;;;;-2.32;100.00;101817.63;4946472;29;20391;-81
2022/02/04 07:07:21;;;;;;;77.10;69.55;;;;;;;-1.78;100.00;101816.84;4941173;29;20114;-81
2022/02/04 07:09:54;;;;;;;69.97;63.65;;;;;;;-1.24;100.00;101814.97;4936877;29;20127;-82
2022/02/04 07:12:28;;;;;;;68.38;62.50;;;;;;;-0.64;100.00;101815.28;4944377;29;20496;-77
2022/02/04 07:18:01;;;;;;;81.07;72.80;;;;;;;0.40;100.00;101824.38;4912891;29;20095;-81
2022/02/04 07:20:28;;;;;;;71.70;64.78;;;;;;;0.23;100.00;101822.97;4903524;29;20640;-77
2022/02/04 07:22:55;;;;;;;75.53;67.65;;;;;;;0.18;100.00;101824.25;4923312;28;20473;-78
2022/02/04 07:25:22;;;;;;;78.65;70.97;;;;;;;0.45;100.00;101811.81;4959638;28;20055;-80
2022/02/04 07:27:48;;;;;;;74.57;66.85;;;;;;;0.49;100.00;101807.19;4944940;28;20142;-80
2022/02/04 07:30:15;;;;;;;81.30;70.65;;;;;;;0.66;100.00;101800.69;4948479;29;20542;-82
2022/02/04 07:32:51;;;;;;;72.85;65.53;;;;;;;1.16;100.00;101819.56;4951287;28;20101;-82
2022/02/04 07:35:34;;;;;;;70.88;64.18;;;;;;;0.86;100.00;101815.72;4951670;29;20155;-79
2022/02/04 07:40:54;;;;;;;64.70;59.25;;;;;;;2.69;100.00;101809.94;4950745;29;20477;-79
2022/02/04 07:43:23;;;;;;;64.05;59.03;;;;;;;3.56;100.00;101819.22;4947922;28;20059;-79
2022/02/04 07:45:50;;;;;;;63.17;58.28;;;;;;;3.52;100.00;101817.81;4950327;28;20551;-81
2022/02/04 07:48:17;;;;;;;63.80;58.50;;;;;;;3.05;100.00;101814.84;4947319;28;20040;-81
2022/02/04 07:50:44;;;;;;;67.47;61.75;;;;;;;2.78;100.00;101815.38;4948415;28;20047;-78
2022/02/04 07:53:13;;;;;;;61.42;56.78;;;;;;;3.18;100.00;101810.22;4950607;29;20052;-81
2022/02/04 07:55:39;;;;;;;60.28;55.78;;;;;;;3.75;100.00;101815.81;4942172;29;20063;-81
2022/02/04 07:58:07;;;;;;;61.45;56.78;;;;;;;3.82;100.00;101811.69;4955114;28;20070;-78
2022/02/04 08:00:35;;;;;;;66.50;61.05;;;;;;;4.44;100.00;101813.13;4957500;28;20487;-78
2022/02/04 08:03:11;;;;;;;69.07;63.20;;;;;;;4.25;100.00;101811.31;4960896;28;20065;-78
2022/02/04 08:05:38;;;;;;;58.53;53.97;;;;;;;4.54;100.00;101808.72;4956830;28;20110;-80
2022/02/04 08:08:16;;;;;;;56.70;52.70;;;;;;;4.93;100.00;101808.66;4959383;28;20058;-82
2022/02/04 08:10:53;;;;;;;61.05;56.22;;;;;;;5.69;100.00;101815.56;4954262;28;20052;-82
2022/02/04 08:13:35;;;;;;;58.40;54.20;;;;;;;5.26;100.00;101796.78;4957622;28;20062;-81
2022/02/04 08:19:14;;;;;;;58.00;54.17;;;;;;;5.54;100.00;101801.19;4956677;28;20059;-79
2022/02/04 08:30:42;;;;;;;58.83;54.83;;;;;;;6.67;100.00;101784.03;4897745;29;20607;-81
2022/02/04 08:38:51;;;;;;;59.78;56.25;;;;;;;7.01;100.00;101769.06;4947345;29;20127;-81
2022/02/04 08:47:03;;;;;;;62.28;58.47;;;;;;;6.07;100.00;101766.22;4943405;29;20059;-77
2022/02/04 08:49:49;;;;;;;62.65;58.58;;;;;;;6.32;100.00;101762.81;4949130;29;20047;-78
2022/02/04 08:55:04;;;;;;;53.85;50.35;;;;;;;4.10;100.00;101770.63;4938321;29;20146;-81
2022/02/04 08:57:41;;;;;;;60.75;56.85;;;;;;;5.91;100.00;101767.69;4947018;29;20138;-81
2022/02/04 09:00:20;;;;;;;51.92;48.72;;;;;;;5.43;100.00;101767.97;4946826;29;20047;-81
2022/02/04 09:02:54;;;;;;;52.95;49.58;;;;;;;6.84;100.00;101767.31;4946020;29;20448;-78
2022/02/04 09:05:29;;;;;;;53.42;50.22;;;;;;;6.46;100.00;101771.16;4945853;29;20079;-79
2022/02/04 09:08:10;;;;;;;54.42;51.03;;;;;;;6.58;100.00;101765.50;4946256;29;20059;-81
2022/02/04 09:10:37;;;;;;;54.22;50.72;;;;;;;6.02;100.00;101771.09;4951213;28;20111;-80
2022/02/04 09:18:59;;;;;;;55.17;51.97;;;;;;;5.74;100.00;101769.31;4949992;29;20051;-82
2022/02/04 09:21:47;;;;;;;53.67;50.42;;;;;;;6.89;100.00;101757.09;4953651;28;20389;-80
2022/02/04 09:24:15;;;;;;;54.70;51.30;;;;;;;7.05;100.00;101754.56;4945324;28;20057;-82
2022/02/04 09:26:42;;;;;;;54.22;50.92;;;;;;;6.84;100.00;101754.13;4950524;28;20110;-81
2022/02/04 09:29:09;;;;;;;56.05;52.78;;;;;;;6.48;95.87;101746.28;4945993;29;20059;-80
2022/02/04 09:31:39;;;;;;;53.88;50.38;;;;;;;7.18;95.95;101745.38;4943715;28;20392;-82
2022/02/04 09:34:06;;;;;;;54.13;50.92;;;;;;;8.36;96.67;101746.94;4947482;29;20047;-81
2022/02/04 09:36:33;;;;;;;55.20;52.00;;;;;;;6.65;88.45;101742.75;4945688;28;20111;-79
2022/02/04 09:39:00;;;;;;;54.63;51.40;;;;;;;8.78;91.46;101742.47;4943192;28;20087;-77
2022/02/04 09:41:28;;;;;;;55.30;52.00;;;;;;;8.16;82.36;101738.50;4945536;28;20126;-80
2022/02/04 09:43:55;;;;;;;56.10;52.78;;;;;;;7.56;83.09;101734.28;4945695;28;20055;-80
2022/02/04 09:46:21;;;;;;;55.38;51.88;;;;;;;9.14;86.66;101735.72;4945259;28;20059;-78
2022/02/04 09:48:54;;;;;;;52.15;49.15;;;;;;;9.94;76.54;101729.31;4955428;28;20130;-77
2022/02/04 09:51:29;;;;;;;55.05;51.50;;;;;;;8.32;77.59;101724.44;4951150;28;20062;-83
2022/02/04 10:08:05;;;;;;;56.75;53.08;;;;;;;8.54;80.75;101712.38;4946575;29;20064;-79
2022/02/04 10:13:22;;;;;;;53.70;50.58;;;;;;;7.38;80.32;101716.88;4944377;29;20059;-76
2022/02/04 10:16:17;;;;;;;52.95;49.47;;;;;;;8.37;76.30;101700.94;4948673;28;20079;-80
2022/02/04 10:18:50;;;;;;;56.83;53.40;;;;;;;8.05;72.91;101704.44;4945430;29;20058;-83
2022/02/04 10:21:18;;;;;;;56.30;52.70;;;;;;;8.13;77.27;101693.84;4946434;29;20475;-79
2022/02/04 10:23:47;;;;;;;52.45;49.35;;;;;;;6.78;77.37;101699.28;4955460;28;20110;-79
2022/02/04 10:26:15;;;;;;;55.55;52.05;;;;;;;7.53;75.40;101689.66;4948222;28;20118;-81
2022/02/04 10:28:42;;;;;;;56.70;53.20;;;;;;;6.25;82.96;101690.53;4947192;29;20043;-81
2022/02/04 10:31:11;;;;;;;54.00;50.45;;;;;;;5.78;81.91;101685.50;4947127;28;20055;-79
2022/02/04 10:33:55;;;;;;;55.35;52.03;;;;;;;6.30;84.21;101685.63;4945770;29;20079;-79
2022/02/04 10:36:47;;;;;;;57.90;54.55;;;;;;;7.28;81.84;101687.94;4943181;29;20063;-81
2022/02/04 10:39:32;;;;;;;52.08;48.95;;;;;;;9.16;72.24;101687.81;4955314;28;20053;-79
2022/02/04 10:42:19;;;;;;;56.13;53.03;;;;;;;8.76;80.03;101688.81;4948817;28;20066;-80
2022/02/04 10:45:10;;;;;;;56.22;53.00;;;;;;;10.12;70.07;101672.44;4950592;29;20147;-80
2022/02/04 10:53:38;;;;;;;58.42;55.13;;;;;;;6.73;73.33;101672.53;4948705;29;20080;-79
2022/02/04 10:56:25;;;;;;;54.60;51.17;;;;;;;7.85;75.44;101672.19;4946850;28;20074;-78
2022/02/04 10:59:11;;;;;;;56.28;52.97;;;;;;;9.04;70.17;101670.66;4953350;28;20468;-78
2022/02/04 11:02:00;;;;;;;57.38;53.92;;;;;;;10.04;65.88;101654.75;4944558;28;20051;-80
2022/02/04 11:04:33;;;;;;;51.88;48.88;;;;;;;8.64;69.34;101656.56;4951425;28;20408;-82
2022/02/04 11:07:16;;;;;;;50.85;48.17;;;;;;;8.62;69.64;101658.56;4947071;28;20055;-81
2022/02/04 11:09:57;;;;;;;57.85;54.20;;;;;;;9.05;66.58;101651.94;4949962;29;20054;-77
2022/02/04 11:35:28;;;;;;;58.05;54.70;;;;;;;10.63;64.66;101617.66;4953965;29;20501;-80
2022/02/04 11:52:37;;;;;;;59.22;55.92;;;;;;;10.64;59.05;101600.72;4949553;29;20112;-78
2022/02/04 11:55:30;;;;;;;58.92;55.22;;;;;;;9.25;57.91;101596.66;4956620;28;20054;-78
2022/02/04 11:58:00;;;;;;;56.40;53.10;;;;;;;8.17;61.69;101599.91;4949903;29;20420;-80
2022/02/04 12:00:30;;;;;;;54.55;51.75;;;;;;;9.51;65.18;101591.03;4953845;28;20070;-79
2022/02/04 12:02:57;;;;;;;56.95;53.42;;;;;;;9.10;63.23;101590.47;4949670;28;20489;-80
2022/02/04 12:05:29;;;;;;;56.13;52.83;;;;;;;11.46;61.06;101583.63;4948759;28;20471;-77
2022/02/04 12:07:59;;;;;;;62.05;58.33;;;;;;;7.99;56.02;101588.69;4953206;28;21459;-78
2022/02/04 12:10:29;;;;;;;58.97;55.53;;;;;;;11.04;55.65;101579.09;4948128;29;20064;-79
2022/02/04 12:13:00;;;;;;;54.78;51.47;;;;;;;11.16;52.44;101578.41;4951592;29;20117;-79
2022/02/04 12:15:37;;;;;;;59.10;55.58;;;;;;;11.68;54.03;101568.47;4947396;28;20143;-79
2022/02/04 12:18:06;;;;;;;60.05;56.55;;;;;;;13.03;48.84;101573.31;4951118;28;20047;-79
2022/02/04 12:21:04;;;;;;;68.68;64.25;;;;;;;11.42;51.80;101569.88;4946776;29;20075;-80
2022/02/04 12:23:56;;;;;;;60.10;56.70;;;;;;;9.11;53.01;101568.28;4949561;29;20472;-80
2022/02/04 12:26:30;;;;;;;64.75;60.60;;;;;;;8.99;52.34;101570.50;4940667;28;20061;-79
2022/02/04 12:29:01;;;;;;;56.35;52.92;;;;;;;10.03;52.76;101569.00;4950989;28;20447;-79
2022/02/04 12:31:31;;;;;;;56.03;52.80;;;;;;;10.07;54.94;101564.13;4951646;28;20048;-80
2022/02/04 12:33:59;;;;;;;58.60;55.05;;;;;;;8.55;50.49;101568.38;4949620;28;20058;-78
2022/02/04 12:36:27;;;;;;;55.67;52.47;;;;;;;11.48;51.92;101562.16;4953944;28;20055;-77
2022/02/04 12:38:58;;;;;;;55.30;52.13;;;;;;;11.83;45.20;101557.72;4958057;28;20122;-79
2022/02/04 12:41:27;;;;;;;56.00;52.80;;;;;;;9.97;48.34;101545.00;4955551;28;20531;-79
2022/02/04 12:43:56;;;;;;;55.78;52.58;;;;;;;9.70;49.07;101552.56;4946159;28;20495;-80
2022/02/04 12:46:25;;;;;;;56.22;53.08;;;;;;;11.37;46.50;101551.00;4950087;28;20051;-81
2022/02/04 12:49:01;;;;;;;55.95;52.65;;;;;;;12.52;47.01;101549.75;4952075;28;20070;-79
2022/02/04 12:51:38;;;;;;;60.47;56.97;;;;;;;13.28;43.54;101540.78;4948375;29;20475;-79
2022/02/04 12:54:05;;;;;;;55.97;52.83;;;;;;;11.51;45.52;101540.50;4955922;28;20051;-78
2022/02/04 12:56:38;;;;;;;55.60;52.60;;;;;;;12.31;46.54;101541.88;4951643;28;20047;-80
2022/02/04 12:59:42;;;;;;;55.13;52.00;;;;;;;10.21;46.59;101533.31;4949010;28;20067;-78
2022/02/04 13:07:57;;;;;;;54.05;51.15;;;;;;;8.18;47.98;101542.50;4950109;29;20396;-84
2022/02/04 13:10:25;;;;;;;54.15;51.25;;;;;;;9.14;51.19;101542.25;4954685;28;20154;-79
2022/02/04 13:12:54;;;;;;;53.47;50.30;;;;;;;7.77;49.46;101534.63;4953100;28;20051;-80
2022/02/04 13:15:23;;;;;;;54.03;51.00;;;;;;;9.23;49.73;101520.94;4946615;29;20428;-81
2022/02/04 13:17:50;;;;;;;55.17;52.17;;;;;;;9.32;47.82;101528.69;4953005;29;20459;-79
2022/02/04 13:20:22;;;;;;;58.90;55.58;;;;;;;8.63;47.96;101525.97;4953234;28;20051;-80
2022/02/04 13:22:50;;;;;;;52.42;49.63;;;;;;;11.56;42.34;101525.59;4950319;28;20051;-79
2022/02/04 13:25:19;;;;;;;53.83;50.85;;;;;;;9.72;44.93;101524.03;4953727;28;20122;-79
2022/02/04 13:28:11;;;;;;;60.30;57.10;;;;;;;8.40;47.70;101528.56;4955868;28;20472;-78
2022/02/04 13:30:41;;;;;;;54.22;51.22;;;;;;;11.17;43.27;101521.59;4950305;28;20146;-79
2022/02/04 13:33:19;;;;;;;52.88;49.97;;;;;;;8.78;46.24;101520.78;4952295;28;20039;-76
2022/02/04 13:35:55;;;;;;;50.08;47.38;;;;;;;8.64;46.88;101519.69;4949600;28;20459;-79
2022/02/04 13:38:29;;;;;;;51.08;48.22;;;;;;;9.63;48.30;101514.50;4949270;28;20062;-79
2022/02/04 13:43:47;;;;;;;61.13;57.85;;;;;;;8.89;46.75;101516.88;4944305;29;20052;-81
2022/02/04 13:46:25;;;;;;;61.05;57.70;;;;;;;10.07;45.79;101503.91;4946347;28;20051;-78
2022/02/04 13:49:13;;;;;;;57.15;54.15;;;;;;;7.47;49.11;101504.44;4946254;29;20396;-79
2022/02/04 13:51:52;;;;;;;55.30;52.30;;;;;;;9.60;46.71;101502.41;4945565;29;20059;-78
2022/02/04 13:54:33;;;;;;;55.35;52.35;;;;;;;9.18;46.74;101489.69;4950645;29;20086;-79
2022/02/04 13:57:21;;;;;;;55.67;52.70;;;;;;;7.75;48.96;101492.50;4944074;28;20129;-79
2022/02/04 14:00:12;;;;;;;62.60;59.10;;;;;;;9.56;48.74;101487.03;4944676;29;20062;-78
2022/02/04 14:02:41;;;;;;;57.25;54.08;;;;;;;9.25;46.52;101487.97;4948118;29;20047;-80
2022/02/04 14:05:10;;;;;;;57.25;54.05;;;;;;;8.23;48.08;101480.13;4954814;29;20057;-77
2022/02/04 14:07:42;;;;;;;60.17;56.65;;;;;;;9.62;48.33;101473.91;4943581;28;20056;-81
2022/02/04 14:10:21;;;;;;;;;;;;;;;10.51;44.53;101476.53;4953016;28;20047;-79
2022/02/04 14:13:02;;;;;;;60.03;56.83;;;;;;;7.31;49.45;101469.09;4945347;29;20359;-81
2022/02/04 14:15:29;;;;;;;62.05;58.65;;;;;;;8.86;49.85;101458.94;4945636;29;20043;-78
2022/02/04 14:17:57;;;;;;;64.00;60.58;;;;;;;7.94;47.92;101462.22;4945774;29;20511;-80
2022/02/04 14:20:24;;;;;;;56.55;53.65;;;;;;;8.72;45.97;101455.25;4945412;28;20051;-78
2022/02/04 14:22:53;;;;;;;53.13;50.08;;;;;;;8.37;45.89;101459.22;4949327;28;20130;-78
2022/02/04 14:25:19;;;;;;;57.80;54.65;;;;;;;9.18;46.05;101448.09;4938953;28;20464;-77
2022/02/04 14:27:51;;;;;;;51.30;48.50;;;;;;;9.37;44.84;101444.13;4945818;29;20385;-78
2022/02/04 14:30:22;;;;;;;54.65;51.83;;;;;;;7.78;44.34;101444.56;4945835;28;20684;-79
2022/02/04 14:32:55;;;;;;;54.95;52.13;;;;;;;9.08;43.33;101444.06;4945359;28;20138;-80
2022/02/04 14:35:30;;;;;;;59.05;55.88;;;;;;;7.90;44.67;101442.38;4941391;29;20135;-81
2022/02/04 14:51:56;;;;;;;56.75;53.85;;;;;;;7.06;45.56;101435.75;4952629;29;20089;-79
2022/02/04 14:54:46;;;;;;;56.33;53.33;;;;;;;6.38;47.00;101450.00;4955116;28;20054;-78
2022/02/04 15:00:19;;;;;;;55.72;52.72;;;;;;;6.13;51.32;101446.44;4945849;29;20162;-80
2022/02/04 15:02:49;;;;;;;55.90;52.70;;;;;;;6.16;51.48;101433.75;4949103;29;20130;-80
2022/02/04 15:05:18;;;;;;;56.03;52.92;;;;;;;4.88;54.70;101436.22;4950020;29;20156;-81
2022/02/04 15:07:47;;;;;;;53.38;50.30;;;;;;;4.74;57.18;101435.75;4950883;29;20074;-79
2022/02/04 15:10:27;;;;;;;56.92;53.50;;;;;;;4.49;59.60;101434.69;4952124;29;20449;-81
2022/02/04 15:12:54;;;;;;;55.35;51.80;;;;;;;4.87;59.79;101435.41;4946706;28;20055;-77
2022/02/04 15:15:21;;;;;;;53.58;50.47;;;;;;;4.62;61.37;101436.13;4948694;28;20047;-78
2022/02/04 15:17:47;;;;;;;55.42;51.78;;;;;;;4.30;65.54;101435.66;4951727;28;20051;-78
2022/02/04 15:20:15;;;;;;;60.30;56.15;;;;;;;3.55;71.33;101439.28;4954167;28;20089;-81
2022/02/04 15:22:41;;;;;;;54.45;50.92;;;;;;;3.59;79.87;101438.03;4944574;29;20055;-79
2022/02/04 15:25:15;;;;;;;52.80;49.63;;;;;;;3.32;84.02;101436.16;4953590;29;20050;-77
2022/02/04 15:27:52;;;;;;;52.17;48.97;;;;;;;2.40;93.10;101434.75;4950752;29;20122;-83
2022/02/04 15:30:25;;;;;;;55.97;52.20;;;;;;;3.05;95.54;101442.09;4952596;28;20427;-79
2022/02/04 15:32:52;;;;;;;54.35;50.65;;;;;;;2.99;95.35;101443.50;4955706;29;20047;-78
2022/02/04 15:35:19;;;;;;;53.10;49.70;;;;;;;2.40;100.00;101432.13;4947526;29;20079;-78
2022/02/04 15:37:45;;;;;;;54.83;51.38;;;;;;;1.98;100.00;101437.53;4956151;28;20122;-80
2022/02/04 15:40:13;;;;;;;55.33;51.38;;;;;;;2.18;100.00;101443.69;4955581;28;20047;-79
2022/02/04 15:42:44;;;;;;;54.78;51.47;;;;;;;2.19;100.00;101437.47;4956941;28;20126;-80
2022/02/04 15:45:38;;;;;;;56.22;52.70;;;;;;;2.08;100.00;101442.78;4954810;28;20055;-78
2022/02/04 15:48:18;;;;;;;58.80;54.28;;;;;;;1.77;100.00;101440.19;4946694;29;20052;-80
2022/02/04 15:50:59;;;;;;;59.60;54.10;;;;;;;0.81;100.00;101435.97;4953520;29;20472;-79